createdAt,value
2022-09-12T00:01:27.586Z,3.10
2022-09-12T00:03:58.240Z,2.60
2022-09-12T00:06:30.158Z,2.40
2022-09-12T00:09:01.854Z,2.40
2022-09-12T00:11:31.638Z,2.80
2022-09-12T00:14:02.550Z,2.88
2022-09-12T00:16:35.380Z,2.90
2022-09-12T00:19:05.553Z,2.63
2022-09-12T00:21:35.911Z,2.80
2022-09-12T00:24:04.772Z,3.00
2022-09-12T00:26:34.874Z,2.45
2022-09-12T00:29:03.276Z,2.83
2022-09-12T00:31:31.650Z,2.60
2022-09-12T00:34:01.665Z,2.40
2022-09-12T00:36:31.300Z,2.30
2022-09-12T00:39:00.375Z,2.58
2022-09-12T00:41:31.362Z,2.35
2022-09-12T00:44:03.028Z,2.70
2022-09-12T00:46:39.079Z,2.50
2022-09-12T00:49:14.513Z,2.55
2022-09-12T00:51:46.871Z,2.80
2022-09-12T00:54:22.182Z,2.57
2022-09-12T00:56:54.368Z,2.40
2022-09-12T00:59:30.449Z,2.83
2022-09-12T01:01:59.007Z,2.87
2022-09-12T01:04:29.594Z,2.58
2022-09-12T01:06:59.541Z,2.63
2022-09-12T01:09:27.983Z,2.60
2022-09-12T01:11:56.949Z,2.60
2022-09-12T01:14:26.845Z,2.70
2022-09-12T01:16:55.182Z,2.75
2022-09-12T01:20:07.947Z,2.70
2022-09-12T01:23:04.912Z,2.50
2022-09-12T01:25:39.667Z,2.63
2022-09-12T01:28:30.406Z,2.95
2022-09-12T01:31:07.893Z,2.83
2022-09-12T01:33:54.943Z,2.90
2022-09-12T01:36:42.529Z,2.70
2022-09-12T01:39:21.986Z,2.75
2022-09-12T01:41:57.300Z,2.55
2022-09-12T01:44:37.856Z,2.70
2022-09-12T01:47:13.132Z,2.45
2022-09-12T01:49:52.094Z,2.50
2022-09-12T01:52:29.059Z,2.47
2022-09-12T01:55:08.982Z,2.80
2022-09-12T01:57:44.362Z,2.70
2022-09-12T02:00:14.388Z,2.87
2022-09-12T02:02:50.686Z,2.70
2022-09-12T02:05:23.372Z,3.10
2022-09-12T02:07:56.993Z,2.60
2022-09-12T02:10:32.666Z,2.63
2022-09-12T02:13:08.295Z,2.65
2022-09-12T02:15:39.419Z,2.63
2022-09-12T02:18:14.130Z,2.80
2022-09-12T02:20:48.253Z,2.60
2022-09-12T02:23:24.395Z,2.75
2022-09-12T02:25:57.611Z,2.70
2022-09-12T02:28:30.589Z,2.80
2022-09-12T02:31:09.718Z,2.42
2022-09-12T02:33:49.261Z,2.70
2022-09-12T02:36:29.688Z,2.60
2022-09-12T02:38:58.259Z,2.58
2022-09-12T02:41:27.242Z,2.55
2022-09-12T02:43:55.874Z,2.70
2022-09-12T02:46:28.208Z,2.63
2022-09-12T02:48:58.774Z,2.85
2022-09-12T02:51:28.326Z,3.40
2022-09-12T02:53:58.115Z,2.50
2022-09-12T02:56:29.411Z,2.70
2022-09-12T02:59:02.329Z,2.60
2022-09-12T03:01:50.287Z,2.80
2022-09-12T03:04:47.111Z,2.60
2022-09-12T03:07:24.323Z,2.70
2022-09-12T03:10:04.915Z,2.65
2022-09-12T03:12:48.210Z,2.80
2022-09-12T03:15:29.695Z,2.80
2022-09-12T03:18:13.118Z,2.63
2022-09-12T03:20:51.743Z,2.88
2022-09-12T03:23:27.281Z,2.50
2022-09-12T03:26:02.263Z,2.80
2022-09-12T03:28:32.231Z,2.40
2022-09-12T03:31:00.912Z,3.00
2022-09-12T03:33:29.563Z,2.75
2022-09-12T03:35:59.507Z,2.77
2022-09-12T03:38:28.034Z,2.42
2022-09-12T03:40:56.575Z,2.78
2022-09-12T03:43:25.095Z,2.60
2022-09-12T03:45:53.903Z,2.45
2022-09-12T03:48:22.518Z,2.90
2022-09-12T03:50:51.059Z,2.42
2022-09-12T03:53:20.964Z,2.40
2022-09-12T03:55:49.509Z,2.70
2022-09-12T03:58:18.071Z,2.70
2022-09-12T04:00:46.783Z,2.72
2022-09-12T04:03:15.351Z,2.67
2022-09-12T04:05:43.878Z,2.38
2022-09-12T04:08:12.588Z,2.70
2022-09-12T04:10:42.856Z,2.30
2022-09-12T04:13:11.418Z,2.70
2022-09-12T04:15:39.947Z,2.60
2022-09-12T04:18:08.490Z,2.75
2022-09-12T04:20:38.270Z,2.33
2022-09-12T04:23:06.836Z,2.40
2022-09-12T04:25:35.358Z,2.42
2022-09-12T04:28:05.473Z,2.37
2022-09-12T04:30:36.188Z,2.40
2022-09-12T04:33:08.028Z,2.53
2022-09-12T04:35:37.272Z,2.72
2022-09-12T04:38:05.825Z,2.53
2022-09-12T04:40:34.906Z,2.72
2022-09-12T04:43:04.949Z,2.55
2022-09-12T04:45:33.710Z,2.50
2022-09-12T04:48:02.488Z,2.60
2022-09-12T04:50:31.051Z,2.67
2022-09-12T04:52:59.588Z,2.60
2022-09-12T04:55:28.446Z,2.50
2022-09-12T04:57:57.051Z,2.42
2022-09-12T05:00:26.919Z,2.25
2022-09-12T05:02:55.459Z,2.60
2022-09-12T05:05:23.974Z,2.57
2022-09-12T05:07:52.518Z,2.45
2022-09-12T05:10:23.782Z,2.60
2022-09-12T05:12:52.687Z,2.65
2022-09-12T05:15:21.195Z,2.63
2022-09-12T05:17:51.167Z,2.53
2022-09-12T05:20:19.724Z,2.70
2022-09-12T05:22:48.276Z,2.58
2022-09-12T05:25:17.157Z,2.40
2022-09-12T05:27:50.360Z,2.47
2022-09-12T05:30:19.151Z,2.40
2022-09-12T05:32:47.691Z,2.43
2022-09-12T05:35:18.476Z,2.47
2022-09-12T05:37:47.012Z,2.60
2022-09-12T05:40:17.844Z,2.50
2022-09-12T05:42:46.507Z,2.45
2022-09-12T05:45:15.163Z,2.40
2022-09-12T05:47:44.539Z,2.38
2022-09-12T05:50:13.082Z,2.33
2022-09-12T05:52:43.155Z,2.75
2022-09-12T05:55:11.907Z,2.25
2022-09-12T05:57:40.573Z,2.60
2022-09-12T06:00:10.605Z,2.90
2022-09-12T06:02:39.479Z,4.80
2022-09-12T06:05:08.546Z,3.10
2022-09-12T06:07:37.188Z,2.50
2022-09-12T06:10:07.830Z,3.60
2022-09-12T06:12:36.382Z,3.03
2022-09-12T06:15:05.317Z,4.75
2022-09-12T06:17:33.927Z,4.97
2022-09-12T06:20:04.090Z,2.50
2022-09-12T06:22:32.754Z,2.15
2022-09-12T06:25:01.267Z,3.87
2022-09-12T06:27:31.225Z,2.20
2022-09-12T06:29:59.790Z,2.30
2022-09-12T06:32:30.978Z,2.20
2022-09-12T06:34:59.486Z,4.20
2022-09-12T06:37:28.512Z,3.75
2022-09-12T06:39:57.272Z,2.83
2022-09-12T06:42:25.887Z,4.87
2022-09-12T06:44:55.782Z,5.78
2022-09-12T06:47:24.660Z,3.28
2022-09-12T06:49:53.184Z,5.18
2022-09-12T06:52:21.723Z,3.03
2022-09-12T06:54:50.223Z,5.22
2022-09-12T06:57:19.001Z,4.75
2022-09-12T06:59:47.521Z,5.40
2022-09-12T07:02:17.528Z,2.63
2022-09-12T07:04:46.071Z,4.25
2022-09-12T07:07:14.712Z,4.05
2022-09-12T07:09:43.254Z,3.83
2022-09-12T07:12:11.496Z,2.30
2022-09-12T07:14:39.812Z,4.45
2022-09-12T07:17:08.655Z,4.93
2022-09-12T07:19:38.314Z,3.33
2022-09-12T07:22:06.661Z,4.60
2022-09-12T07:24:34.907Z,4.32
2022-09-12T07:27:03.148Z,3.95
2022-09-12T07:29:38.521Z,3.47
2022-09-12T07:32:08.076Z,2.35
2022-09-12T07:34:38.027Z,5.13
2022-09-12T07:37:06.376Z,4.47
2022-09-12T07:39:34.605Z,3.45
2022-09-12T07:42:02.883Z,4.80
2022-09-12T07:44:31.145Z,4.60
2022-09-12T07:46:59.664Z,4.60
2022-09-12T07:49:28.321Z,3.53
2022-09-12T07:51:58.355Z,4.17
2022-09-12T07:54:26.885Z,4.63
2022-09-12T07:56:55.732Z,2.83
2022-09-12T07:59:41.778Z,3.30
2022-09-12T08:02:17.109Z,2.80
2022-09-12T08:04:46.605Z,6.15
2022-09-12T08:07:18.337Z,4.72
2022-09-12T08:09:47.583Z,4.90
2022-09-12T08:12:17.787Z,6.45
2022-09-12T08:14:46.332Z,4.07
2022-09-12T08:17:15.367Z,4.60
2022-09-12T08:19:44.936Z,4.78
2022-09-12T08:22:15.443Z,5.07
2022-09-12T08:24:44.549Z,6.80
2022-09-12T08:27:13.078Z,4.43
2022-09-12T08:29:41.628Z,5.20
2022-09-12T08:32:10.648Z,4.35
2022-09-12T08:34:39.200Z,5.07
2022-09-12T08:37:07.729Z,4.68
2022-09-12T08:39:37.696Z,4.93
2022-09-12T08:42:07.509Z,5.03
2022-09-12T08:45:06.303Z,3.90
2022-09-12T08:47:37.961Z,4.65
2022-09-12T08:50:15.421Z,4.93
2022-09-12T08:52:53.000Z,5.13
2022-09-12T08:55:32.303Z,4.55
2022-09-12T08:58:01.873Z,4.97
2022-09-12T09:00:40.588Z,4.43
2022-09-12T09:03:45.113Z,5.45
2022-09-12T09:06:24.910Z,4.53
2022-09-12T09:09:02.962Z,4.22
2022-09-12T09:11:48.475Z,4.68
2022-09-12T09:14:50.802Z,4.03
2022-09-12T09:17:27.660Z,4.23
2022-09-12T09:20:04.961Z,4.55
2022-09-12T09:22:42.483Z,4.70
2022-09-12T09:25:22.853Z,4.53
2022-09-12T09:27:59.621Z,3.47
2022-09-12T09:30:28.679Z,4.13
2022-09-12T09:33:00.902Z,4.40
2022-09-12T09:35:39.561Z,4.45
2022-09-12T09:38:23.188Z,3.78
2022-09-12T09:41:11.840Z,4.43
2022-09-12T09:43:42.450Z,3.20
2022-09-12T09:46:11.950Z,4.27
2022-09-12T09:48:45.785Z,3.22
2022-09-12T09:51:18.086Z,3.53
2022-09-12T09:53:50.339Z,4.57
2022-09-12T09:56:29.221Z,3.95
2022-09-12T09:59:09.222Z,3.67
2022-09-12T10:01:38.941Z,4.30
2022-09-12T10:04:20.913Z,3.25
2022-09-12T10:06:51.943Z,2.55
2022-09-12T10:09:23.792Z,3.33
2022-09-12T10:11:54.105Z,3.25
2022-09-12T10:14:37.082Z,3.17
2022-09-12T10:17:25.849Z,3.08
2022-09-12T10:20:17.397Z,2.60
2022-09-12T10:22:49.608Z,2.92
2022-09-12T10:25:19.780Z,4.10
2022-09-12T10:27:55.179Z,2.15
2022-09-12T10:30:28.390Z,2.60
2022-09-12T10:33:06.872Z,2.90
2022-09-12T10:35:47.084Z,2.60
2022-09-12T10:38:24.800Z,2.70
2022-09-12T10:41:01.279Z,2.75
2022-09-12T10:43:35.547Z,2.20
2022-09-12T10:46:24.306Z,2.60
2022-09-12T10:49:13.389Z,2.05
2022-09-12T10:51:41.918Z,1.90
2022-09-12T10:54:13.573Z,2.20
2022-09-12T10:56:52.889Z,2.23
2022-09-12T10:59:34.362Z,2.40
2022-09-12T11:02:15.903Z,2.20
2022-09-12T11:04:56.696Z,1.95
2022-09-12T11:07:40.355Z,2.20
2022-09-12T11:10:23.562Z,2.95
2022-09-12T11:13:01.083Z,1.52
2022-09-12T11:15:46.715Z,2.25
2022-09-12T11:18:31.682Z,2.60
2022-09-12T11:21:16.308Z,1.98
2022-09-12T11:24:28.722Z,1.63
2022-09-12T11:27:10.249Z,2.17
2022-09-12T11:29:50.364Z,1.27
2022-09-12T11:32:53.703Z,1.48
2022-09-12T11:35:27.613Z,1.77
2022-09-12T11:38:31.940Z,1.65
2022-09-12T11:41:05.004Z,1.58
2022-09-12T11:43:39.871Z,1.63
2022-09-12T11:46:20.797Z,1.80
2022-09-12T11:48:56.479Z,1.33
2022-09-12T11:51:30.805Z,1.50
2022-09-12T11:54:10.453Z,1.60
2022-09-12T11:56:44.135Z,1.40
2022-09-12T11:59:22.081Z,1.80
2022-09-12T12:01:59.202Z,1.43
2022-09-12T12:04:37.663Z,1.53
2022-09-12T12:07:10.656Z,1.10
2022-09-12T12:09:48.901Z,1.30
2022-09-12T12:12:22.065Z,1.30
2022-09-12T12:14:54.997Z,1.30
2022-09-12T12:17:25.652Z,1.00
2022-09-12T12:20:06.520Z,1.37
2022-09-12T12:22:38.435Z,1.20
2022-09-12T12:25:29.482Z,1.20
2022-09-12T12:28:01.776Z,1.00
2022-09-12T12:31:03.663Z,1.25
2022-09-12T12:34:01.453Z,1.00
2022-09-12T12:36:42.340Z,1.20
2022-09-12T12:39:49.297Z,1.10
2022-09-12T12:43:05.298Z,0.93
2022-09-12T12:46:13.063Z,2.30
2022-09-12T12:49:10.557Z,1.00
2022-09-12T12:51:50.768Z,1.40
2022-09-12T12:54:33.319Z,0.90
2022-09-12T12:57:41.741Z,2.00
2022-09-12T13:00:32.158Z,0.88
2022-09-12T13:03:07.531Z,1.48
2022-09-12T13:05:43.789Z,1.15
2022-09-12T13:08:28.688Z,1.00
2022-09-12T13:11:00.894Z,1.00
2022-09-12T13:13:34.218Z,1.58
2022-09-12T13:16:02.957Z,1.00
2022-09-12T13:18:43.780Z,0.90
2022-09-12T13:21:17.450Z,0.70
2022-09-12T13:24:00.618Z,1.10
2022-09-12T13:26:29.258Z,1.00
2022-09-12T13:29:16.419Z,0.90
2022-09-12T13:31:47.331Z,1.00
2022-09-12T13:34:22.131Z,1.40
2022-09-12T13:37:21.252Z,0.95
2022-09-12T13:39:51.457Z,1.45
2022-09-12T13:42:48.933Z,0.90
2022-09-12T13:45:21.868Z,0.90
2022-09-12T13:47:57.986Z,1.00
2022-09-12T13:50:31.882Z,0.93
2022-09-12T13:53:06.834Z,0.93
2022-09-12T13:55:39.219Z,1.50
2022-09-12T13:58:23.059Z,1.00
2022-09-12T14:01:09.260Z,0.90
2022-09-12T14:04:00.660Z,0.73
2022-09-12T14:06:29.484Z,0.70
2022-09-12T14:09:01.385Z,0.82
2022-09-12T14:11:33.873Z,1.75
2022-09-12T14:14:07.576Z,0.70
2022-09-12T14:16:41.251Z,0.95
2022-09-12T14:19:12.214Z,0.75
2022-09-12T14:21:40.672Z,0.82
2022-09-12T14:24:13.180Z,0.80
2022-09-12T14:26:43.748Z,0.52
2022-09-12T14:29:17.741Z,0.80
2022-09-12T14:31:46.277Z,1.10
2022-09-12T14:34:17.542Z,0.93
2022-09-12T14:36:49.067Z,0.90
2022-09-12T14:39:25.522Z,0.85
2022-09-12T14:42:04.896Z,1.80
2022-09-12T14:44:35.089Z,0.80
2022-09-12T14:47:20.570Z,0.98
2022-09-12T14:49:51.662Z,0.70
2022-09-12T14:52:29.608Z,0.80
2022-09-12T14:55:02.139Z,0.52
2022-09-12T14:57:36.471Z,1.08
2022-09-12T15:00:26.334Z,0.70
2022-09-12T15:02:54.699Z,0.75
2022-09-12T15:05:28.097Z,0.60
2022-09-12T15:08:00.975Z,0.73
2022-09-12T15:10:35.006Z,0.80
2022-09-12T15:13:19.337Z,0.90
2022-09-12T15:15:51.186Z,0.50
2022-09-12T15:18:20.683Z,1.00
2022-09-12T15:20:52.841Z,0.63
2022-09-12T15:23:38.192Z,0.87
2022-09-12T15:26:11.251Z,0.95
2022-09-12T15:28:39.478Z,0.70
2022-09-12T15:31:16.437Z,0.60
2022-09-12T15:33:44.765Z,1.38
2022-09-12T15:36:17.707Z,0.77
2022-09-12T15:38:46.834Z,1.52
2022-09-12T15:41:19.127Z,1.25
2022-09-12T15:43:47.939Z,0.90
2022-09-12T15:46:18.984Z,0.77
2022-09-12T15:48:47.447Z,0.88
2022-09-12T15:51:18.484Z,0.93
2022-09-12T15:53:48.380Z,0.55
2022-09-12T15:56:19.873Z,0.60
2022-09-12T15:58:59.614Z,1.47
2022-09-12T16:01:29.653Z,1.20
2022-09-12T16:03:58.533Z,0.70
2022-09-12T16:06:27.896Z,0.90
2022-09-12T16:08:56.249Z,0.80
2022-09-12T16:11:28.384Z,0.63
2022-09-12T16:13:57.983Z,0.90
2022-09-12T16:16:26.381Z,1.60
2022-09-12T16:18:54.662Z,0.35
2022-09-12T16:21:22.995Z,2.22
2022-09-12T16:23:51.259Z,0.88
2022-09-12T16:26:19.562Z,0.55
2022-09-12T16:28:49.424Z,0.70
2022-09-12T16:31:17.822Z,0.70
2022-09-12T16:33:46.122Z,0.73
2022-09-12T16:36:17.024Z,0.60
2022-09-12T16:38:47.340Z,1.00
2022-09-12T16:41:17.316Z,0.60
2022-09-12T16:43:46.911Z,0.70
2022-09-12T16:46:19.545Z,0.83
2022-09-12T16:48:52.428Z,1.50
2022-09-12T16:51:23.651Z,0.90
2022-09-12T16:53:52.856Z,0.80
2022-09-12T16:56:21.188Z,0.60
2022-09-12T16:58:49.635Z,0.82
2022-09-12T17:01:21.612Z,0.75
2022-09-12T17:03:53.140Z,0.70
2022-09-12T17:06:21.995Z,0.80
2022-09-12T17:08:53.548Z,0.40
2022-09-12T17:11:24.190Z,0.90
2022-09-12T17:14:10.202Z,0.90
2022-09-12T17:16:42.955Z,0.90
2022-09-12T17:19:17.224Z,1.20
2022-09-12T17:21:47.187Z,0.40
2022-09-12T17:24:16.060Z,0.40
2022-09-12T17:26:44.825Z,0.50
2022-09-12T17:29:14.228Z,0.75
2022-09-12T17:31:45.130Z,0.47
2022-09-12T17:34:16.237Z,0.43
2022-09-12T17:36:45.622Z,0.30
2022-09-12T17:39:15.348Z,0.63
2022-09-12T17:41:45.778Z,0.47
2022-09-12T17:44:16.007Z,0.40
2022-09-12T17:46:45.735Z,0.40
2022-09-12T17:49:17.338Z,0.40
2022-09-12T17:51:46.257Z,0.50
2022-09-12T17:54:16.747Z,0.80
2022-09-12T17:56:49.749Z,0.40
2022-09-12T17:59:21.447Z,0.50
2022-09-12T18:02:08.803Z,0.60
2022-09-12T18:04:37.472Z,0.60
2022-09-12T18:07:06.033Z,0.55
2022-09-12T18:09:34.328Z,0.50
2022-09-12T18:12:02.990Z,0.40
2022-09-12T18:14:31.546Z,0.47
2022-09-12T18:17:01.254Z,0.60
2022-09-12T18:19:29.922Z,1.95
2022-09-12T18:21:58.500Z,0.50
2022-09-12T18:24:26.940Z,1.40
2022-09-12T18:26:56.759Z,0.90
2022-09-12T18:29:25.390Z,0.90
2022-09-12T18:31:53.664Z,0.65
2022-09-12T18:34:23.411Z,0.73
2022-09-12T18:36:54.338Z,0.60
2022-09-12T18:39:26.828Z,0.60
2022-09-12T18:41:55.849Z,0.77
2022-09-12T18:44:24.233Z,0.60
2022-09-12T18:46:52.863Z,0.50
2022-09-12T18:49:22.575Z,0.60
2022-09-12T18:51:50.852Z,0.40
2022-09-12T18:54:19.380Z,0.52
2022-09-12T18:56:47.787Z,0.50
2022-09-12T18:59:16.629Z,0.50
2022-09-12T19:01:45.403Z,0.50
2022-09-12T19:04:16.546Z,0.95
2022-09-12T19:06:48.830Z,0.85
2022-09-12T19:09:20.992Z,1.10
2022-09-12T19:11:50.141Z,0.95
2022-09-12T19:14:20.178Z,1.10
2022-09-12T19:16:48.500Z,0.90
2022-09-12T19:19:16.753Z,1.05
2022-09-12T19:21:47.113Z,0.70
2022-09-12T19:24:17.036Z,0.50
2022-09-12T19:26:46.239Z,0.50
2022-09-12T19:29:16.570Z,0.70
2022-09-12T19:31:45.675Z,0.70
2022-09-12T19:34:15.102Z,0.70
2022-09-12T19:36:46.276Z,0.70
2022-09-12T19:39:19.444Z,0.60
2022-09-12T19:41:47.960Z,0.60
2022-09-12T19:44:19.170Z,0.50
2022-09-12T19:46:47.615Z,0.60
2022-09-12T19:49:15.948Z,0.77
2022-09-12T19:51:44.454Z,0.53
2022-09-12T19:54:13.093Z,0.60
2022-09-12T19:56:42.749Z,0.60
2022-09-12T19:59:11.213Z,0.53
2022-09-12T20:01:39.566Z,0.70
2022-09-12T20:04:07.988Z,0.60
2022-09-12T20:06:36.850Z,0.60
2022-09-12T20:09:05.412Z,0.63
2022-09-12T20:11:33.841Z,0.70
2022-09-12T20:14:03.810Z,0.80
2022-09-12T20:16:33.541Z,0.60
2022-09-12T20:19:06.099Z,0.60
2022-09-12T20:21:36.046Z,0.68
2022-09-12T20:24:07.539Z,0.70
2022-09-12T20:26:36.754Z,0.80
2022-09-12T20:29:07.586Z,0.70
2022-09-12T20:31:37.134Z,0.70
2022-09-12T20:34:06.469Z,0.70
2022-09-12T20:36:35.391Z,0.70
2022-09-12T20:39:04.060Z,0.70
2022-09-12T20:41:35.353Z,0.60
2022-09-12T20:44:05.186Z,0.90
2022-09-12T20:46:33.587Z,1.00
2022-09-12T20:49:01.899Z,0.80
2022-09-12T20:51:30.487Z,1.15
2022-09-12T20:54:00.773Z,0.80
2022-09-12T20:56:31.747Z,1.08
2022-09-12T20:59:00.401Z,1.13
2022-09-12T21:01:31.458Z,1.30
2022-09-12T21:04:01.087Z,1.50
2022-09-12T21:06:29.815Z,1.70
2022-09-12T21:09:00.668Z,0.87
2022-09-12T21:11:29.706Z,0.90
2022-09-12T21:13:58.485Z,0.80
2022-09-12T21:16:27.157Z,0.77
2022-09-12T21:18:59.467Z,0.88
2022-09-12T21:21:28.296Z,0.55
2022-09-12T21:24:00.548Z,0.70
2022-09-12T21:26:28.833Z,0.70
2022-09-12T21:28:57.477Z,0.90
2022-09-12T21:31:26.547Z,0.80
2022-09-12T21:33:56.300Z,0.80
2022-09-12T21:36:26.078Z,0.68
2022-09-12T21:38:54.339Z,0.60
2022-09-12T21:41:22.631Z,0.75
2022-09-12T21:43:51.333Z,1.35
2022-09-12T21:46:20.014Z,0.80
2022-09-12T21:48:48.284Z,0.75
2022-09-12T21:51:18.186Z,0.57
2022-09-12T21:53:46.440Z,0.50
2022-09-12T21:56:14.730Z,0.70
2022-09-12T21:58:42.953Z,0.68
2022-09-12T22:01:13.382Z,0.68
2022-09-12T22:03:44.820Z,1.27
2022-09-12T22:06:14.234Z,0.50
2022-09-12T22:08:43.902Z,0.70
2022-09-12T22:11:12.908Z,1.52
2022-09-12T22:13:43.337Z,0.95
2022-09-12T22:16:12.361Z,1.00
2022-09-12T22:18:40.723Z,0.60
2022-09-12T22:21:13.026Z,0.82
2022-09-12T22:23:59.248Z,0.95
2022-09-12T22:26:29.303Z,1.00
2022-09-12T22:28:57.709Z,0.95
2022-09-12T22:31:27.050Z,1.75
2022-09-12T22:33:57.359Z,0.93
2022-09-12T22:36:30.447Z,0.90
2022-09-12T22:38:59.792Z,0.90
2022-09-12T22:41:29.544Z,1.70
2022-09-12T22:43:58.525Z,1.00
2022-09-12T22:46:27.592Z,2.40
2022-09-12T22:48:56.662Z,1.20
2022-09-12T22:51:25.252Z,1.10
2022-09-12T22:53:53.763Z,1.20
2022-09-12T22:56:22.570Z,1.90
2022-09-12T22:58:52.259Z,0.63
2022-09-12T23:01:20.664Z,0.80
2022-09-12T23:03:49.003Z,0.88
2022-09-12T23:06:17.618Z,1.05
2022-09-12T23:08:46.056Z,0.80
2022-09-12T23:11:17.020Z,0.73
2022-09-12T23:13:47.612Z,0.60
2022-09-12T23:16:20.106Z,1.27
2022-09-12T23:18:49.494Z,1.42
2022-09-12T23:21:20.733Z,0.60
2022-09-12T23:23:49.421Z,0.70
2022-09-12T23:26:21.449Z,1.20
2022-09-12T23:28:52.826Z,0.90
2022-09-12T23:31:23.952Z,0.98
2022-09-12T23:33:55.753Z,1.00
2022-09-12T23:36:25.506Z,1.63
2022-09-12T23:38:54.896Z,2.42
2022-09-12T23:41:23.750Z,1.33
2022-09-12T23:43:52.502Z,0.90
2022-09-12T23:46:22.557Z,0.90
2022-09-12T23:48:53.206Z,1.50
2022-09-12T23:51:22.789Z,1.08
2022-09-12T23:53:51.070Z,0.90
2022-09-12T23:56:19.347Z,1.00
2022-09-12T23:58:47.948Z,0.80
